IRA955T DAOO-GMMN
Flight info
| Callsign | IRA955T |
|---|---|
| Flight time | N/A |
| Altitude | 31000 |
| Route | SID73 OJD DCT FES DCT SADIC |
| Aircraft | B738/M-SDE2E3FGHIRWXY/LB1 |
Departure
| Time | 2026-04-23 12:40 |
|---|---|
| Airport | Oran Es-Sénia (Ahmed Ben Bella) International Airport (DAOO) |
Arrival
| Time | N/A |
|---|---|
| Airport | Mohammed V International Airport (GMMN) |
| Time | Latitude | Longitude | Altitude | Speed | Heading |
|---|---|---|---|---|---|
| 2026-04-23 12:30 | 35.61741 | -0.61257 | 301 ft | 1 kts | 104° |
| 2026-04-23 12:31 | 35.61742 | -0.61258 | 301 ft | 2 kts | 104° |
| 2026-04-23 12:31 | 35.61747 | -0.61289 | 303 ft | 4 kts | 97° |
| 2026-04-23 12:31 | 35.61748 | -0.61322 | 304 ft | 4 kts | 86° |
| 2026-04-23 12:31 | 35.61744 | -0.61354 | 303 ft | 4 kts | 67° |
| 2026-04-23 12:32 | 35.61730 | -0.61379 | 303 ft | 4 kts | 22° |
| 2026-04-23 12:32 | 35.61723 | -0.61382 | 302 ft | 1 kts | 8° |
| 2026-04-23 12:34 | 35.61760 | -0.61375 | 303 ft | 12 kts | 11° |
| 2026-04-23 12:35 | 35.61871 | -0.61329 | 302 ft | 19 kts | 13° |
| 2026-04-23 12:35 | 35.61992 | -0.61373 | 303 ft | 18 kts | 336° |
| 2026-04-23 12:35 | 35.62003 | -0.61506 | 302 ft | 17 kts | 248° |
| 2026-04-23 12:35 | 35.61957 | -0.61641 | 303 ft | 17 kts | 247° |
| 2026-04-23 12:36 | 35.61913 | -0.61770 | 300 ft | 16 kts | 247° |
| 2026-04-23 12:36 | 35.61870 | -0.61895 | 300 ft | 16 kts | 247° |
| 2026-04-23 12:36 | 35.61829 | -0.62015 | 301 ft | 15 kts | 247° |
| 2026-04-23 12:36 | 35.61790 | -0.62130 | 298 ft | 14 kts | 247° |
| 2026-04-23 12:37 | 35.61752 | -0.62240 | 298 ft | 14 kts | 247° |
| 2026-04-23 12:37 | 35.61716 | -0.62345 | 297 ft | 13 kts | 247° |
| 2026-04-23 12:37 | 35.61682 | -0.62447 | 297 ft | 13 kts | 247° |
| 2026-04-23 12:37 | 35.61646 | -0.62551 | 294 ft | 13 kts | 247° |
| 2026-04-23 12:38 | 35.61611 | -0.62653 | 297 ft | 13 kts | 247° |
| 2026-04-23 12:38 | 35.61578 | -0.62752 | 294 ft | 12 kts | 247° |
| 2026-04-23 12:38 | 35.61542 | -0.62856 | 292 ft | 15 kts | 247° |
| 2026-04-23 12:38 | 35.61500 | -0.62979 | 292 ft | 16 kts | 247° |
| 2026-04-23 12:39 | 35.61456 | -0.63107 | 296 ft | 17 kts | 247° |
| 2026-04-23 12:39 | 35.61409 | -0.63245 | 296 ft | 18 kts | 247° |
| 2026-04-23 12:39 | 35.61421 | -0.63394 | 299 ft | 21 kts | 303° |
| 2026-04-23 12:39 | 35.61625 | -0.63453 | 296 ft | 46 kts | 32° |
| 2026-04-23 12:40 | 35.61782 | -0.63036 | 291 ft | 87 kts | 67° |
| 2026-04-23 12:40 | 35.62107 | -0.62082 | 296 ft | 153 kts | 67° |
| 2026-04-23 12:40 | 35.62609 | -0.60758 | 714 ft | 176 kts | 59° |
| 2026-04-23 12:40 | 35.63403 | -0.59588 | 1480 ft | 189 kts | 34° |
| 2026-04-23 12:41 | 35.64678 | -0.58928 | 1981 ft | 207 kts | 18° |
| 2026-04-23 12:41 | 35.66169 | -0.58554 | 2226 ft | 234 kts | 355° |
| 2026-04-23 12:41 | 35.67678 | -0.59406 | 2673 ft | 251 kts | 313° |
| 2026-04-23 12:41 | 35.68501 | -0.61291 | 3505 ft | 255 kts | 281° |
| 2026-04-23 12:42 | 35.68435 | -0.63451 | 4424 ft | 257 kts | 251° |
| 2026-04-23 12:42 | 35.67436 | -0.65252 | 5279 ft | 261 kts | 217° |
| 2026-04-23 12:42 | 35.65756 | -0.66036 | 6125 ft | 264 kts | 182° |
| 2026-04-23 12:42 | 35.63917 | -0.65912 | 6988 ft | 267 kts | 175° |
| 2026-04-23 12:43 | 35.62052 | -0.65809 | 7789 ft | 271 kts | 187° |
| 2026-04-23 12:43 | 35.60322 | -0.66691 | 8589 ft | 274 kts | 219° |
| 2026-04-23 12:43 | 35.58945 | -0.68314 | 9429 ft | 276 kts | 225° |
| 2026-04-23 12:43 | 35.57598 | -0.70021 | 10201 ft | 281 kts | 226° |
| 2026-04-23 12:44 | 35.56237 | -0.71764 | 10986 ft | 284 kts | 226° |
| 2026-04-23 12:44 | 35.54862 | -0.73521 | 11762 ft | 287 kts | 226° |
| 2026-04-23 12:44 | 35.53468 | -0.75295 | 12516 ft | 290 kts | 226° |
| 2026-04-23 12:44 | 35.52056 | -0.77085 | 13264 ft | 294 kts | 226° |
| 2026-04-23 12:45 | 35.50623 | -0.78895 | 13981 ft | 298 kts | 226° |
| 2026-04-23 12:45 | 35.49131 | -0.80777 | 14240 ft | 320 kts | 226° |
| 2026-04-23 12:45 | 35.47524 | -0.82798 | 14421 ft | 342 kts | 226° |
| 2026-04-23 12:45 | 35.45813 | -0.84950 | 14586 ft | 362 kts | 226° |
| 2026-04-23 12:46 | 35.44007 | -0.87217 | 14789 ft | 380 kts | 225° |
| 2026-04-23 12:46 | 35.42138 | -0.89563 | 15276 ft | 388 kts | 225° |
| 2026-04-23 12:46 | 35.40247 | -0.91935 | 15901 ft | 391 kts | 225° |
| 2026-04-23 12:46 | 35.38340 | -0.94324 | 16554 ft | 393 kts | 225° |
| 2026-04-23 12:47 | 35.36421 | -0.96729 | 17149 ft | 397 kts | 226° |
| 2026-04-23 12:47 | 35.34618 | -0.99305 | 17723 ft | 400 kts | 232° |
| 2026-04-23 12:47 | 35.32960 | -1.02057 | 18285 ft | 404 kts | 234° |
| 2026-04-23 12:47 | 35.31362 | -1.04844 | 18817 ft | 407 kts | 235° |
| 2026-04-23 12:48 | 35.29713 | -1.07740 | 19360 ft | 410 kts | 235° |
| 2026-04-23 12:48 | 35.28065 | -1.10607 | 19883 ft | 414 kts | 234° |
| 2026-04-23 12:48 | 35.26411 | -1.13448 | 20375 ft | 417 kts | 234° |
| 2026-04-23 12:48 | 35.24712 | -1.16337 | 20867 ft | 420 kts | 234° |
| 2026-04-23 12:49 | 35.22989 | -1.19242 | 21336 ft | 423 kts | 234° |
| 2026-04-23 12:49 | 35.21249 | -1.22163 | 21798 ft | 426 kts | 234° |
| 2026-04-23 12:49 | 35.19495 | -1.25098 | 22255 ft | 429 kts | 234° |
| 2026-04-23 12:49 | 35.17726 | -1.28055 | 22692 ft | 432 kts | 234° |
| 2026-04-23 12:50 | 35.15946 | -1.31028 | 23082 ft | 436 kts | 234° |
| 2026-04-23 12:50 | 35.14151 | -1.34023 | 23502 ft | 438 kts | 234° |
| 2026-04-23 12:50 | 35.12348 | -1.37030 | 23926 ft | 440 kts | 233° |
| 2026-04-23 12:50 | 35.10536 | -1.40049 | 24349 ft | 441 kts | 233° |
| 2026-04-23 12:51 | 35.08719 | -1.43074 | 24756 ft | 443 kts | 233° |
| 2026-04-23 12:51 | 35.06890 | -1.46118 | 25124 ft | 445 kts | 233° |
| 2026-04-23 12:51 | 35.05052 | -1.49173 | 25463 ft | 448 kts | 233° |
| 2026-04-23 12:51 | 35.03203 | -1.52245 | 25795 ft | 451 kts | 233° |
| 2026-04-23 12:52 | 35.01342 | -1.55334 | 26121 ft | 453 kts | 233° |
| 2026-04-23 12:52 | 34.99469 | -1.58438 | 26457 ft | 455 kts | 233° |
| 2026-04-23 12:52 | 34.97596 | -1.61541 | 26871 ft | 454 kts | 233° |
| 2026-04-23 12:52 | 34.95726 | -1.64638 | 27314 ft | 453 kts | 233° |
| 2026-04-23 12:53 | 34.93857 | -1.67728 | 27756 ft | 452 kts | 233° |
| 2026-04-23 12:53 | 34.91993 | -1.70808 | 28143 ft | 452 kts | 233° |
| 2026-04-23 12:53 | 34.90126 | -1.73891 | 28555 ft | 451 kts | 233° |
| 2026-04-23 12:53 | 34.88265 | -1.76961 | 28998 ft | 450 kts | 233° |
| 2026-04-23 12:54 | 34.86407 | -1.80022 | 29414 ft | 449 kts | 233° |
| 2026-04-23 12:54 | 34.84555 | -1.83074 | 29792 ft | 448 kts | 233° |
| 2026-04-23 12:54 | 34.82701 | -1.86125 | 30151 ft | 448 kts | 233° |
| 2026-04-23 12:54 | 34.80849 | -1.89170 | 30534 ft | 447 kts | 233° |
| 2026-04-23 12:55 | 34.79000 | -1.92208 | 30910 ft | 446 kts | 233° |
| 2026-04-23 12:55 | 34.77224 | -1.95318 | 30972 ft | 451 kts | 242° |
| 2026-04-23 12:55 | 34.76112 | -1.98876 | 31036 ft | 451 kts | 253° |
| 2026-04-23 12:55 | 34.75204 | -2.02534 | 30999 ft | 451 kts | 253° |
| 2026-04-23 12:56 | 34.73386 | -2.09795 | 30995 ft | 448 kts | 253° |
| 2026-04-23 12:56 | 34.71540 | -2.16953 | 31003 ft | 447 kts | 252° |
| 2026-04-23 12:57 | 34.69653 | -2.24142 | 31001 ft | 446 kts | 252° |
| 2026-04-23 12:57 | 34.67755 | -2.31318 | 31001 ft | 446 kts | 252° |
| 2026-04-23 12:58 | 34.65855 | -2.38489 | 31002 ft | 446 kts | 252° |
| 2026-04-23 12:58 | 34.63951 | -2.45656 | 31002 ft | 446 kts | 252° |
| 2026-04-23 12:59 | 34.62040 | -2.52830 | 31003 ft | 447 kts | 252° |
| 2026-04-23 12:59 | 34.60126 | -2.60001 | 31002 ft | 447 kts | 252° |
| 2026-04-23 13:00 | 34.58205 | -2.67175 | 31002 ft | 447 kts | 252° |
| 2026-04-23 13:00 | 34.56282 | -2.74341 | 31002 ft | 447 kts | 252° |
| 2026-04-23 13:01 | 34.54354 | -2.81505 | 31001 ft | 447 kts | 252° |
| 2026-04-23 13:01 | 34.52424 | -2.88661 | 31001 ft | 446 kts | 252° |
| 2026-04-23 13:02 | 34.50490 | -2.95808 | 31000 ft | 446 kts | 252° |
| 2026-04-23 13:02 | 34.48553 | -3.02949 | 31001 ft | 446 kts | 252° |
| 2026-04-23 13:03 | 34.46614 | -3.10079 | 31003 ft | 445 kts | 252° |
| 2026-04-23 13:03 | 34.44673 | -3.17200 | 31000 ft | 445 kts | 251° |
| 2026-04-23 13:04 | 34.42727 | -3.24319 | 31002 ft | 445 kts | 251° |
| 2026-04-23 13:04 | 34.40778 | -3.31432 | 31002 ft | 445 kts | 251° |
| 2026-04-23 13:05 | 34.38837 | -3.38495 | 31001 ft | 445 kts | 251° |
| 2026-04-23 13:05 | 34.36880 | -3.45600 | 31001 ft | 445 kts | 251° |
| 2026-04-23 13:06 | 34.33931 | -3.56271 | 31002 ft | 446 kts | 251° |
| 2026-04-23 13:07 | 34.31959 | -3.63386 | 31001 ft | 446 kts | 251° |
| 2026-04-23 13:07 | 34.29981 | -3.70502 | 31002 ft | 447 kts | 251° |
| 2026-04-23 13:08 | 34.27995 | -3.77627 | 31002 ft | 447 kts | 251° |
| 2026-04-23 13:08 | 34.26006 | -3.84749 | 31001 ft | 448 kts | 251° |
| 2026-04-23 13:09 | 34.24009 | -3.91879 | 31001 ft | 448 kts | 251° |
| 2026-04-23 13:09 | 34.22009 | -3.99000 | 31002 ft | 448 kts | 251° |
| 2026-04-23 13:10 | 34.20003 | -4.06127 | 30998 ft | 448 kts | 251° |
| 2026-04-23 13:10 | 34.17993 | -4.13249 | 31004 ft | 448 kts | 251° |
| 2026-04-23 13:11 | 34.15980 | -4.20365 | 30999 ft | 448 kts | 251° |
| 2026-04-23 13:11 | 34.14304 | -4.26277 | 30999 ft | 448 kts | 251° |
| 2026-04-23 13:12 | 34.12284 | -4.33382 | 31004 ft | 448 kts | 251° |
| 2026-04-23 13:12 | 34.10262 | -4.40481 | 31002 ft | 447 kts | 251° |
| 2026-04-23 13:13 | 34.08237 | -4.47571 | 31001 ft | 447 kts | 251° |
| 2026-04-23 13:13 | 34.06208 | -4.54656 | 31001 ft | 446 kts | 251° |
| 2026-04-23 13:14 | 34.04178 | -4.61727 | 30999 ft | 446 kts | 251° |
| 2026-04-23 13:14 | 34.02149 | -4.68780 | 31001 ft | 446 kts | 251° |
| 2026-04-23 13:15 | 34.00112 | -4.75841 | 31002 ft | 446 kts | 251° |
| 2026-04-23 13:15 | 33.98074 | -4.82890 | 31002 ft | 445 kts | 251° |
| 2026-04-23 13:16 | 33.96032 | -4.89935 | 31000 ft | 446 kts | 251° |
| 2026-04-23 13:16 | 33.93985 | -4.96985 | 31003 ft | 446 kts | 251° |
| 2026-04-23 13:17 | 33.92177 | -5.04124 | 30999 ft | 446 kts | 259° |
| 2026-04-23 13:17 | 33.91156 | -5.11493 | 31001 ft | 447 kts | 261° |
| 2026-04-23 13:18 | 33.90187 | -5.18882 | 31002 ft | 447 kts | 261° |
| 2026-04-23 13:18 | 33.89176 | -5.26224 | 31000 ft | 448 kts | 260° |
| 2026-04-23 13:19 | 33.88125 | -5.33614 | 31002 ft | 448 kts | 260° |
| 2026-04-23 13:19 | 33.87061 | -5.41001 | 31001 ft | 448 kts | 260° |
| 2026-04-23 13:20 | 33.85992 | -5.48393 | 31002 ft | 448 kts | 260° |
| 2026-04-23 13:20 | 33.84921 | -5.55777 | 31001 ft | 448 kts | 260° |
| 2026-04-23 13:21 | 33.83845 | -5.63162 | 31001 ft | 448 kts | 260° |
| 2026-04-23 13:21 | 33.82766 | -5.70540 | 31001 ft | 448 kts | 260° |
| 2026-04-23 13:22 | 33.81683 | -5.77910 | 31003 ft | 447 kts | 260° |
| 2026-04-23 13:22 | 33.80598 | -5.85270 | 31001 ft | 447 kts | 260° |
| 2026-04-23 13:23 | 33.80075 | -5.92660 | 30995 ft | 445 kts | 279° |
| 2026-04-23 13:23 | 33.80962 | -5.96220 | 30760 ft | 447 kts | 296° |
| 2026-04-23 13:23 | 33.82679 | -5.99322 | 30482 ft | 447 kts | 313° |
| 2026-04-23 13:23 | 33.85063 | -6.01720 | 29961 ft | 449 kts | 329° |
| 2026-04-23 13:24 | 33.87662 | -6.03756 | 29404 ft | 445 kts | 318° |
| 2026-04-23 13:24 | 33.89553 | -6.06662 | 28822 ft | 442 kts | 296° |
| 2026-04-23 13:24 | 33.90410 | -6.10151 | 28244 ft | 431 kts | 274° |
| 2026-04-23 13:24 | 33.90139 | -6.13671 | 27670 ft | 419 kts | 252° |
| 2026-04-23 13:25 | 33.88812 | -6.16714 | 27084 ft | 408 kts | 229° |
| 2026-04-23 13:25 | 33.86725 | -6.18965 | 26541 ft | 398 kts | 220° |
| 2026-04-23 13:25 | 33.84939 | -6.21488 | 25938 ft | 402 kts | 241° |
| 2026-04-23 13:25 | 33.83736 | -6.24487 | 25423 ft | 406 kts | 246° |
| 2026-04-23 13:26 | 33.82580 | -6.27583 | 24836 ft | 404 kts | 245° |
| 2026-04-23 13:26 | 33.81384 | -6.30657 | 24248 ft | 398 kts | 244° |
| 2026-04-23 13:26 | 33.80167 | -6.33629 | 23715 ft | 393 kts | 243° |
| 2026-04-23 13:26 | 33.78950 | -6.36494 | 23209 ft | 388 kts | 243° |
| 2026-04-23 13:27 | 33.77714 | -6.39347 | 22708 ft | 384 kts | 242° |
| 2026-04-23 13:27 | 33.76476 | -6.42175 | 22202 ft | 381 kts | 242° |
| 2026-04-23 13:27 | 33.75245 | -6.44980 | 21712 ft | 378 kts | 242° |
| 2026-04-23 13:27 | 33.74020 | -6.47771 | 21211 ft | 377 kts | 242° |
| 2026-04-23 13:28 | 33.72799 | -6.50556 | 20713 ft | 376 kts | 242° |
| 2026-04-23 13:28 | 33.71581 | -6.53330 | 20217 ft | 375 kts | 242° |
| 2026-04-23 13:28 | 33.70367 | -6.56092 | 19713 ft | 373 kts | 242° |
| 2026-04-23 13:28 | 33.69395 | -6.58960 | 19193 ft | 372 kts | 257° |
| 2026-04-23 13:29 | 33.68918 | -6.61997 | 18723 ft | 369 kts | 260° |
| 2026-04-23 13:29 | 33.68256 | -6.64958 | 18197 ft | 368 kts | 244° |
| 2026-04-23 13:29 | 33.66790 | -6.67436 | 17724 ft | 364 kts | 223° |
| 2026-04-23 13:29 | 33.64788 | -6.69252 | 17297 ft | 359 kts | 214° |
| 2026-04-23 13:30 | 33.62724 | -6.70929 | 16841 ft | 357 kts | 214° |
| 2026-04-23 13:30 | 33.60675 | -6.72596 | 16398 ft | 358 kts | 214° |
| 2026-04-23 13:30 | 33.58611 | -6.74286 | 15959 ft | 359 kts | 214° |
| 2026-04-23 13:30 | 33.56556 | -6.75979 | 15559 ft | 356 kts | 214° |
| 2026-04-23 13:31 | 33.54527 | -6.77657 | 15156 ft | 352 kts | 214° |
| 2026-04-23 13:31 | 33.52519 | -6.79322 | 14752 ft | 349 kts | 214° |
| 2026-04-23 13:31 | 33.50536 | -6.80969 | 14345 ft | 345 kts | 214° |
| 2026-04-23 13:31 | 33.48569 | -6.82603 | 13953 ft | 342 kts | 214° |
| 2026-04-23 13:32 | 33.46622 | -6.84221 | 13550 ft | 339 kts | 214° |
| 2026-04-23 13:32 | 33.44689 | -6.85826 | 13153 ft | 337 kts | 214° |
| 2026-04-23 13:32 | 33.42771 | -6.87419 | 12746 ft | 334 kts | 214° |
| 2026-04-23 13:32 | 33.40871 | -6.88995 | 12386 ft | 330 kts | 214° |
| 2026-04-23 13:33 | 33.38991 | -6.90554 | 12058 ft | 326 kts | 214° |
| 2026-04-23 13:33 | 33.37138 | -6.92090 | 11717 ft | 322 kts | 214° |
| 2026-04-23 13:33 | 33.35303 | -6.93609 | 11403 ft | 319 kts | 214° |
| 2026-04-23 13:33 | 33.33492 | -6.95109 | 11075 ft | 315 kts | 214° |
| 2026-04-23 13:34 | 33.31696 | -6.96596 | 10750 ft | 312 kts | 214° |
| 2026-04-23 13:34 | 33.29921 | -6.98064 | 10439 ft | 309 kts | 214° |
| 2026-04-23 13:34 | 33.28162 | -6.99518 | 10132 ft | 305 kts | 214° |
| 2026-04-23 13:34 | 33.26426 | -7.00953 | 9830 ft | 302 kts | 214° |
| 2026-04-23 13:35 | 33.24707 | -7.02374 | 9531 ft | 299 kts | 214° |
| 2026-04-23 13:35 | 33.23001 | -7.03782 | 9227 ft | 296 kts | 214° |
| 2026-04-23 13:35 | 33.21314 | -7.05173 | 8924 ft | 294 kts | 214° |
| 2026-04-23 13:35 | 33.19644 | -7.06560 | 8629 ft | 291 kts | 217° |
| 2026-04-23 13:36 | 33.18343 | -7.08358 | 8354 ft | 287 kts | 244° |
| 2026-04-23 13:36 | 33.17755 | -7.10606 | 8126 ft | 282 kts | 259° |
| 2026-04-23 13:36 | 33.17408 | -7.12895 | 7875 ft | 279 kts | 260° |
| 2026-04-23 13:36 | 33.17084 | -7.15160 | 7623 ft | 276 kts | 260° |
| 2026-04-23 13:37 | 33.16756 | -7.17404 | 7372 ft | 273 kts | 260° |
| 2026-04-23 13:37 | 33.16422 | -7.19632 | 7117 ft | 271 kts | 259° |
| 2026-04-23 13:37 | 33.16085 | -7.21831 | 6867 ft | 269 kts | 259° |
| 2026-04-23 13:37 | 33.15745 | -7.24020 | 6616 ft | 267 kts | 259° |
| 2026-04-23 13:38 | 33.15406 | -7.26191 | 6365 ft | 265 kts | 259° |
| 2026-04-23 13:38 | 33.15069 | -7.28348 | 6106 ft | 264 kts | 259° |
| 2026-04-23 13:38 | 33.14734 | -7.30490 | 5868 ft | 262 kts | 259° |
| 2026-04-23 13:38 | 33.14401 | -7.32616 | 5615 ft | 260 kts | 259° |
| 2026-04-23 13:39 | 33.14070 | -7.34726 | 5360 ft | 258 kts | 259° |
| 2026-04-23 13:39 | 33.13741 | -7.36821 | 5110 ft | 256 kts | 259° |
| 2026-04-23 13:39 | 33.13414 | -7.38903 | 4859 ft | 254 kts | 259° |
| 2026-04-23 13:39 | 33.13089 | -7.40971 | 4607 ft | 253 kts | 259° |
| 2026-04-23 13:40 | 33.12765 | -7.43028 | 4346 ft | 252 kts | 259° |
| 2026-04-23 13:40 | 33.12447 | -7.45048 | 4109 ft | 250 kts | 259° |
| 2026-04-23 13:40 | 33.12126 | -7.47078 | 3861 ft | 249 kts | 259° |
| 2026-04-23 13:40 | 33.11909 | -7.49117 | 3585 ft | 248 kts | 275° |
| 2026-04-23 13:41 | 33.12591 | -7.50922 | 3477 ft | 238 kts | 316° |
| 2026-04-23 13:41 | 33.14011 | -7.51764 | 3447 ft | 226 kts | 354° |
| 2026-04-23 13:41 | 33.15532 | -7.51870 | 3442 ft | 213 kts | 352° |
| 2026-04-23 13:41 | 33.16951 | -7.52148 | 3435 ft | 200 kts | 349° |
| 2026-04-23 13:42 | 33.18261 | -7.52475 | 3444 ft | 184 kts | 346° |
| 2026-04-23 13:42 | 33.19443 | -7.52843 | 3426 ft | 168 kts | 345° |